Pioche, Nevada Weather observations

Data are for observation ending at time listed.
 Day   Time    Ave.   Ave.  Ave.  Vector   Max.   Stn.    Total    Solar   Ave.  
  of    of     Air    Rel.  Wind   Wind    Wind   Baro.  Precip.   Rad.    Soil  
Year   Day     Temp.  Hum.  Speed  Dir.    Gust   Pres.                    Temp. 
2020   (PST)    F      %     mph   deg.    mph     mb.     in.     W/m2     F   
------------------------------------------------------------------------------
 335   10:30   46.3    21    4.7   105      9.6   826.9    0.00     585    41.5
 335   10:40   46.6    19    6.1   107     13.6   826.8    0.00     595    41.4
 335   10:50   46.2    19    7.6   118     12.0   826.6    0.00     604    41.4
 335   11:00   46.4    19    6.7   128     11.5   826.4    0.00     610    41.4
 335   11:10   46.6    19    6.5   151     12.8   826.4    0.00     615    41.4
 335   11:20   46.9    19    6.3   152     13.2   826.3    0.00     617    41.4
 335   11:30   46.9    18    9.3   140     15.6   825.9    0.00     619    41.4
 335   11:40   47.1    18    9.4   136     12.9   825.7    0.00     619    41.4
 335   11:50   47.3    18    8.0   142     12.4   825.6    0.00     618    41.4
 335   12:00   48.2    17    7.6   140     11.4   825.6    0.00     618    41.4
 335   12:10   48.7    17    6.5   140     10.9   825.4    0.00     609    41.4
 335   12:20   49.0    17    6.3   144      9.7   825.2    0.00     609    41.4
 335   12:30   49.7    17    5.7   118      8.4   825.1    0.00     580    41.5
 335   12:40   50.0    17    7.0   131     10.6   824.9    0.00     542    41.5
 335   12:50   50.3    17    6.8   136     10.7   824.6    0.00     565    41.5
 335   13:00   50.4    17    6.3   148     10.6   824.5    0.00     500    41.5
 335   13:10   50.3    17    6.8   146     11.5   824.3    0.00     534    41.6
 335   13:20   50.1    17    8.3   147     12.0   824.1    0.00     515    41.6
 335   13:30   50.1    17    7.6   144     11.6   823.8    0.00     495    41.7
 335   13:40   50.4    17    8.3   149     12.8   823.5    0.00     474    41.7
 335   13:50   50.4    18    6.6   182     11.9   823.6    0.00     451    41.8
 335   14:00   51.0    17    5.6   175     10.2   823.7    0.00     426    41.8
 335   14:10   51.0    17    5.6   157     10.6   823.6    0.00     401    41.9
 335   14:20   50.9    17    5.1   148      9.1   823.5    0.00     374    41.9
 335   14:30   51.2    16    4.1   146      6.9   823.6    0.00     346    42.0
 335   14:40   51.5    16    3.3   151      6.6   823.6    0.00     182    42.1
 335   14:50   51.8    16    1.6   154      3.6   823.7    0.00     286    42.2
 335   15:00   51.4    16    2.3   149      5.2   823.6    0.00     256    42.3
 335   15:10   51.6    16    1.5   189      4.0   823.7    0.00     225    42.3
 335   15:20   50.8    16    2.3   164      4.2   823.6    0.00     194    42.4
 335   15:30   50.1    16    1.1   266      3.6   823.7    0.00     162    42.5
 335   15:40   49.0    18    1.1   203      3.5   823.7    0.00     101    42.6
 335   15:50   46.9    20    1.3   207      3.3   823.7    0.00      15    42.7
 335   16:00   45.1    21    1.6   216      3.7   823.7    0.00      12    42.8
 335   16:10   44.5    21    1.2   193      2.6   823.8    0.00      11    42.9
 335   16:20   43.6    21    1.5   216      3.7   823.9    0.00       8    43.0
 335   16:30   43.9    21    1.4   205      3.7   823.7    0.00       5    43.0
 335   16:40   43.4    22    2.6   215      4.6   823.6    0.00       0    43.1
 335   16:50   42.9    22    3.0   215      5.2   823.5    0.00       0    43.1
 335   17:00   43.1    22    3.0   214      5.8   823.5    0.00       0    43.2
 335   17:10   41.1    24    2.1   226      3.6   823.6    0.00       0    43.2
 335   17:20   41.2    24    1.9   229      5.8   823.5    0.00       0    43.2
 335   17:30   40.1    24    1.4   227      3.8   823.6    0.00       0    43.4
 335   17:40   39.1    25    2.8   144      4.7   823.6    0.00       0    43.4
 335   17:50   38.4    27    1.8   165      4.7   823.7    0.00       0    43.4
 335   18:00   38.0    27    2.7   152      4.5   823.6    0.00       0    43.5
 335   18:10   38.0    27    2.9   148      5.3   823.5    0.00       0    43.5
 335   18:20   37.9    27    3.0   153      5.4   823.3    0.00       0    43.5
 335   18:30   37.5    28    4.1   151      5.9   823.3    0.00       0    43.6
 335   18:40   37.5    28    3.3   140      5.0   823.2    0.00       0    43.6
 335   18:50   38.0    27    3.7   155      6.2   823.1    0.00       0    43.6
 335   19:00   38.1    27    4.5   158      6.4   822.9    0.00       0    43.6
 335   19:10   37.6    28    4.9   154      6.4   823.0    0.00       0    43.6
 335   19:20   37.0    28    5.5   152      6.6   822.8    0.00       0    43.7
 335   19:30   36.9    28    2.7   126      5.4   822.9    0.00       0    43.5
 335   19:40   36.1    29    3.5   152      6.4   822.7    0.00       0    43.7
 335   19:50   35.3    30    1.9   163      4.5   822.6    0.00       0    43.7
 335   20:00   36.0    29    1.2   190      3.4   822.6    0.00       0    43.7
 335   20:10   35.0    31    0.9   151      3.9   822.7    0.00       0    43.7
 335   20:20   34.9    30    0.4    97      1.9   822.8    0.00       0    43.7
 335   20:30   32.9    33    1.6   234      4.3   822.9    0.00       0    43.7
 335   20:40   32.6    33    2.0   154      5.7   822.9    0.00       0    43.7
 335   20:50   33.5    32    4.7   146      7.2   822.7    0.00       0    43.7
 335   21:00   33.8    32    1.3   186      3.2   822.8    0.00       0    43.7
 335   21:10   34.5    31    2.0   163      4.6   822.7    0.00       0    43.6
 335   21:20   35.6    30    3.6   145      6.5   822.7    0.00       0    43.6
 335   21:30   34.0    31    1.6   108      3.7   822.8    0.00       0    43.6
 335   21:40   32.7    33    2.8    85      4.7   822.8    0.00       0    43.6
 335   21:50   31.6    34    2.1   138      3.4   823.0    0.00       0    43.6
 335   22:00   31.3    35    1.2   212      3.3   823.0    0.00       0    43.6
 335   22:10   30.7    36    1.5   167      3.1   822.8    0.00       0    43.6
 335   22:20   31.1    35    1.5   157      4.5   822.9    0.00       0    43.5
 335   22:30   30.5    37    1.4   220      3.3   823.1    0.00       0    43.5
 335   22:40   30.9    36    1.8   237      3.6   823.1    0.00       0    43.4
 335   22:50   31.3    35    1.6   335      5.0   823.3    0.00       0    43.4
 335   23:00   27.9    40    1.9   113      4.5   823.5    0.00       0    43.5
 335   23:10   27.5    42    2.3   224      4.6   823.4    0.00       0    43.4
 335   23:20   29.2    40    1.9   234      3.6   823.4    0.00       0    43.4
 335   23:30   31.0    36    2.0   242      5.1   823.5    0.00       0    43.4
 335   23:40   31.4    36    2.9   154      4.8   823.4    0.00       0    43.3
 335   23:50   31.1    36    3.7   156      5.6   823.4    0.00       0    43.3
 336    0:00   30.9    36    4.9   149      6.9   823.4    0.00       0    43.2
 336    0:10   30.9    36    3.6   154      6.6   823.4    0.00       0    43.2
 336    0:20   30.9    36    3.6   155      6.5   823.4    0.00       0    43.2
 336    0:30   30.8    36    2.8   154      6.6   823.2    0.00       0    43.1
 336    0:40   32.1    34    5.0   156      7.5   823.1    0.00       0    43.1
 336    0:50   32.4    34    5.0   158      6.7   823.3    0.00       0    43.1
 336    1:00   31.3    36    2.3   171      6.1   823.4    0.00       0    43.1
 336    1:10   30.8    37    2.5   156      5.8   823.3    0.00       0    43.0
 336    1:20   31.0    37    3.6   154      6.7   823.2    0.00       0    43.0
 336    1:30   31.5    36    3.2   158      6.8   823.3    0.00       0    42.9
 336    1:40   31.4    36    3.7   160      5.6   823.2    0.00       0    43.0
 336    1:50   30.8    38    1.4   162      5.3   823.3    0.00       0    42.9
 336    2:00   30.9    38    1.2   153      3.5   823.3    0.00       0    42.9
 336    2:10   30.0    38    2.6   108      4.3   823.5    0.00       0    42.9
 336    2:20   26.3    42    1.1    66      2.8   823.5    0.00       0    42.8
 336    2:30   25.7    44    0.6   211      2.8   823.5    0.00       0    42.8
 336    2:40   26.5    43    0.9   134      2.5   823.6    0.00       0    42.8
 336    2:50   26.9    42    1.4   199      3.4   823.7    0.00       0    42.8
 336    3:00   27.2    42    0.7   178      2.0   823.6    0.00       0    42.7
 336    3:10   27.7    41    0.9    61      4.1   823.8    0.00       0    42.6
 336    3:20   27.8    42    1.2   274      3.7   823.9    0.00       0    42.6
 336    3:30   28.6    40    3.2   265      5.5   824.0    0.00       0    42.6
 336    3:40   28.6    40    2.5   261      4.6   824.0    0.00       0    42.5
 336    3:50   27.7    42    2.4   255      4.7   824.0    0.00       0    42.5
 336    4:00   29.3    39    2.7   257      6.8   824.0    0.00       0    42.4
 336    4:10   32.3    34    4.9   270      8.0   824.2    0.00       0    42.5
 336    4:20   32.0    34    4.7   264      6.9   824.1    0.00       0    42.4
 336    4:30   32.1    34    4.1   263      6.8   824.2    0.00       0    42.4
 336    4:40   32.1    34    4.3   264      7.7   824.4    0.00       0    42.3
 336    4:50   31.8    34    5.0   266      8.9   824.3    0.00       0    42.3
 336    5:00   31.5    35    4.9   274      9.7   824.3    0.00       0    42.3
 336    5:10   31.3    35    5.2   279      7.9   824.5    0.00       0    42.2
 336    5:20   30.6    37    4.9   283      7.7   824.6    0.00       0    42.2
 336    5:30   29.5    39    2.9   280      5.0   824.7    0.00       0    42.2
 336    5:40   29.1    39    1.0   308      4.9   824.8    0.00       0    42.2
 336    5:50   28.3    41    2.7   310      5.1   824.9    0.00       0    42.2
 336    6:00   27.2    43    2.5   273      7.8   824.8    0.00       0    42.1
 336    6:10   27.6    44    4.6   270      9.0   824.8    0.00       0    42.1
 336    6:20   27.8    46    4.1   268      6.1   824.8    0.00       0    42.0
 336    6:30   28.2    46    3.6   270      6.2   824.8    0.00       0    42.0
 336    6:40   28.6    47    4.8   286      8.6   824.9    0.00       6    41.9
 336    6:50   29.3    47    3.5   298      8.5   825.0    0.00      14    41.9
 336    7:00   29.1    49    5.0   293      9.6   825.2    0.00      39    41.9
 336    7:10   29.3    50    3.3   274      5.3   825.3    0.00      68    41.8
 336    7:20   29.5    50    4.2   276      7.7   825.4    0.00     107    42.0
 336    7:30   29.4    51    5.1   269      9.3   825.5    0.00     148    41.9
 336    7:40   30.1    50    4.3   286      7.1   825.6    0.00     183    41.9
 336    7:50   31.1    48    4.4   295      8.0   825.8    0.00     216    41.9
 336    8:00   31.6    47    4.8   290      7.9   825.8    0.00     249    41.9
 336    8:10   32.1    47    5.5   309      9.0   826.0    0.00     281    41.8
 336    8:20   33.3    46    5.1   318      9.0   826.0    0.00     313    41.8
 336    8:30   34.1    45    5.8   316      9.9   826.0    0.00     343    41.7
 336    8:40   34.3    45    9.3   312     16.1   826.0    0.00     373    41.7
 336    8:50   34.6    45    7.8   302     11.4   826.1    0.00     401    41.7
 336    9:00   35.5    44    7.7   304     11.8   826.1    0.00     427    41.7
 336    9:10   36.1    44    8.3   307     11.9   826.1    0.00     451    41.6
 336    9:20   36.5    44    8.6   306     15.0   826.0    0.00     474    41.7
 336    9:30   36.9    43    8.6   304     12.9   826.0    0.00     495    41.7
 336    9:40   37.5    42    7.8   304     12.3   825.9    0.00     515    41.6
 336    9:50   37.7    42    8.7   310     13.4   825.9    0.00     534    41.6
 336   10:00   38.0    41    8.9   309     12.7   826.0    0.00     551    41.6
 336   10:10   38.4    41    7.7   310     12.3   826.1    0.00     565    41.6
 336   10:20   39.1    40    8.2   314     14.1   826.1    0.00     579    41.6

Return to Pioche, Nevada graphs page.


Western Regional Climate Center,wrcc@dri.edu